ENOV/HOV METAR and TAF weather

Enter ICAO airport designator
Station Type Date Time Source
ENOV METAR 2021/07/28 18:50 UTC NOAA

ENOV 281850Z 26005KT 9999 FEW025 SCT100 19/16 Q1001 RMK WIND 2175FT VRB02KT


Station Type Date Time Source
ENOV Decoded METAR 2021/07/28 18:50 UTC NOAA

Orsta-Volda / Hovden, Norway (ENOV) 62-11N 006-04E 74M
Jul 28, 2021 - 02:50 PM EDT / 2021.07.28 1850 UTC
Wind: from the W (260 degrees) at 6 MPH (5 KT):0
Visibility: greater than 7 mile(s):0
Sky conditions: partly cloudy
Temperature: 66 F (19 C)
Dew Point: 60 F (16 C)
Relative Humidity: 82%
Pressure (altimeter): 29.56 in. Hg (1001 hPa)
ob: ENOV 281850Z 26005KT 9999 FEW025 SCT100 19/16 Q1001 RMK WIND 2175FT VRB02KT
cycle: 19

Station Type Date Time Source
ENOV TAF UTC NOAA

Error!

Example: see airport list